PANC Airport Information

Runway Information
Runway 07L Length 10600 ft width 150 ft
Elevation 128 ft Threshold 0 ft Heading 90
Runway 25R Length 10600 ft Width 150 ft
Elevation 92 ft Threshold 0 ft Heading 270
Runway 07R Length 10900 ft width 150 ft
Elevation 130 ft Threshold 0 ft Heading 90
Runway 25L Length 10900 ft Width 150 ft
Elevation 100 ft Threshold 0 ft Heading 270
Runway 14 Length 11584 ft width 150 ft
Elevation 151 ft Threshold 200 ft Heading 165
Runway 32 Length 11584 ft Width 150 ft
Elevation 121 ft Threshold 893 ft Heading 345
Airport Frequencies
Type A/D Name APP/DEP Frequency 119.1 MHZ
Type A/D Name APP/DEP Frequency 123.8 MHZ
Type ATIS Name ATIS Frequency 118.4 MHZ
Type AWOS Name TWEB Frequency 114.3 MHZ
Type CLD Name CLNC DEL Frequency 119.4 MHZ
Type FSS Name KENAI RDO Frequency 122.2 MHZ
Type GND Name GND Frequency 121.9 MHZ
Type MISC Name SAN FRANCI Frequency 1133 MHZ
Type POST Name CAMPER Frequency 140.15 MHZ
Type RFSS Name KENAI RDO Frequency 122.55 MHZ
Type TWR Name TWR Frequency 118.3 MHZ
Type UNIC Name UNICOM Frequency 122.95 MHZ
Airport Navaids
Type NDB Name Orca Bay Frequency 233 KHZ
Type VOR-DME Name Anchorage Frequency 114300 KHZ
Type NDB Name Bruck Frequency 387 KHZ
Type NDB Name Campbell Lake Frequency 338 KHZ
Airport Weather Information & NOTAM
ADDS - METARS form results

(1901 UTC 17 February 2019)
Data provider http://aviationweather.gov/metar/data/
 
METAR text: PANC 171853Z VRB03KT 1 1/2SM -SN BR FEW006 OVC025 M04/M06 A2990 RMK AO2 PRESFR SLP127 P0002 T10391056
Conditions at: PANC (ANCHORAGE INTL , AK, US) observed 1853 UTC 17 February 2019
Temperature: -3.9°C (25°F)
Dewpoint: -5.6°C (22°F) [RH = 88%]
Pressure (altimeter): 29.90 inches Hg (1012.6 mb)
[Sea-level pressure: 1012.7 mb]
Winds: variable direction winds at 3 MPH (3 knots; 1.5 m/s)
Visibility: 1.50 miles (2.41 km)
Ceiling: 2500 feet AGL
Clouds: few clouds at 600 feet AGL
overcast cloud deck at 2500 feet AGL
Weather: -SN BR  (light snow, mist)

METAR text: PANC 171850Z 34006KT 1 1/2SM -SN BR FEW005 OVC025 M04/M06 A2990 RMK AO2 PRESFR P0002
Conditions at: PANC (ANCHORAGE INTL , AK, US) observed 1850 UTC 17 February 2019
Temperature: -4.0°C (25°F)
Dewpoint: -6.0°C (21°F) [RH = 86%]
Pressure (altimeter): 29.90 inches Hg (1012.6 mb)
Winds: from the NNW (340 degrees) at 7 MPH (6 knots; 3.1 m/s)
Visibility: 1.50 miles (2.41 km)
Ceiling: 2500 feet AGL
Clouds: few clouds at 500 feet AGL
overcast cloud deck at 2500 feet AGL
Weather: -SN BR  (light snow, mist)

METAR text: PANC 171833Z 01005KT 1 1/2SM R07R/6000VP6000FT -SN BR OVC024 M04/M06 A2992 RMK AO2 CIG 018 N P0002 T10391056
Conditions at: PANC (ANCHORAGE INTL , AK, US) observed 1833 UTC 17 February 2019
Temperature: -3.9°C (25°F)
Dewpoint: -5.6°C (22°F) [RH = 88%]
Pressure (altimeter): 29.92 inches Hg (1013.3 mb)
Winds: from the N (10 degrees) at 6 MPH (5 knots; 2.6 m/s)
Visibility: 1.50 miles (2.41 km)
Ceiling: 2400 feet AGL
Clouds: overcast cloud deck at 2400 feet AGL
Weather: -SN BR  (light snow, mist)

METAR text: PANC 171824Z 35004KT 3/4SM R07R/5000VP6000FT -SN BR VV018 M04/M06 A2993 RMK AO2 P0001 T10391056
Conditions at: PANC (ANCHORAGE INTL , AK, US) observed 1824 UTC 17 February 2019
Temperature: -3.9°C (25°F)
Dewpoint: -5.6°C (22°F) [RH = 88%]
Pressure (altimeter): 29.93 inches Hg (1013.6 mb)
Winds: from the N (350 degrees) at 5 MPH (4 knots; 2.1 m/s)
Visibility: 0.75 miles (1.21 km)
Ceiling: indefinite ceiling with vertical visibility of 1800 feet AGL
Clouds: obscured sky
Weather: -SN BR  (light snow, mist)

Forecast for: PANC (ANCHORAGE INTL , AK, US)
Text: PANC 171843Z 1718/1824 35008KT 6SM -SN OVC035 WS020/12040KT
Forecast period: 1800 to 2200 UTC 17 February 2019
Forecast type: FROM: standard forecast or significant change
Winds: from the N (350 degrees) at 9 MPH (8 knots; 4.1 m/s)
Visibility: 6 miles (10 km)
Ceiling: 3500 feet AGL
Clouds: overcast cloud deck at 3500 feet AGL
Wind Shear: at 2000 feet ( 610 m) AGL, from the ESE (120 degrees) at 46 MPH (40 knots; 20.8 m/s)
Weather: -SN  (light snow)
Text: TEMPO 1718/1722 1SM -SN OVC010
Forecast period: 1800 to 2200 UTC 17 February 2019
Forecast type: TEMPORARY: The following changes expected for less than half the time period
Visibility: 1.00 miles (1.61 km)
Ceiling: 1000 feet AGL
Clouds: overcast cloud deck at 1000 feet AGL
Weather: -SN  (light snow)
Text: FM172200 36008KT 3SM -SN OVC020 WS020/12040KT
Forecast period: 2200 UTC 17 February 2019 to 0300 UTC 18 February 2019
Forecast type: FROM: standard forecast or significant change
Winds: from the N (360 degrees) at 9 MPH (8 knots; 4.1 m/s)
Visibility: 3 miles (5 km)
Ceiling: 2000 feet AGL
Clouds: overcast cloud deck at 2000 feet AGL
Wind Shear: at 2000 feet ( 610 m) AGL, from the ESE (120 degrees) at 46 MPH (40 knots; 20.8 m/s)
Weather: -SN  (light snow)
Text: FM180300 16012G22KT P6SM VCSH SCT025 OVC040
Forecast period: 0300 to 1200 UTC 18 February 2019
Forecast type: FROM: standard forecast or significant change
Winds: from the SSE (160 degrees) at 14 MPH (12 knots; 6.2 m/s)
gusting to 25 MPH (22 knots; 11.3 m/s)
Visibility: 6 or more miles 10+ km)
Ceiling: 4000 feet AGL
Clouds: scattered clouds at 2500 feet AGL
overcast cloud deck at 4000 feet AGL
Weather: VCSH  (showers in vicinity)
Text: FM181200 16013KT P6SM OVC050
Forecast period: 1200 UTC 18 February 2019 to 0000 UTC 19 February 2019
Forecast type: FROM: standard forecast or significant change
Winds: from the SSE (160 degrees) at 15 MPH (13 knots; 6.7 m/s)
Visibility: 6 or more miles 10+ km)
Ceiling: 5000 feet AGL
Clouds: overcast cloud deck at 5000 feet AGL
Weather: no significant weather forecast for this period